Argusville, North Dakota
Current Conditions -  °F | °C
As of 1:53 PM on Saturday 25 Oct 2014 (Local Time) from KFAR Reporting Station
Clear Clear  
Wind Chill: 60°   Ceiling: Unl
Heat Index: 60°   Visibility: 10mi
Dew Point: 28°   Wind: 15mph
Humidity: 30%   Direction: 320°NW
Pressure: 30.09"   Gusts: NA
Location:  47.05°N, 96.93°W
Report Text: KFAR 251853Z AUTO 32013KT 10SM CLR 16/M02 A3009 RMK AO2 SLP195 T01561022 TSNO $
Loading
Personal Weather Stations






























Interactive Weather Map New forecast layout! Learn more

10-Day Weather Forecast

Advertisements
Track Severe Weather on mobile